createdAt,value
2019-05-23T00:01:05.281Z,99.90
2019-05-23T00:03:40.143Z,99.90
2019-05-23T00:06:12.956Z,99.90
2019-05-23T00:08:43.332Z,99.90
2019-05-23T00:11:32.830Z,99.90
2019-05-23T00:14:07.517Z,99.90
2019-05-23T00:16:38.572Z,99.90
2019-05-23T00:19:07.946Z,99.90
2019-05-23T00:21:39.258Z,99.90
2019-05-23T00:24:08.976Z,99.90
2019-05-23T00:26:39.569Z,99.90
2019-05-23T00:29:11.006Z,99.90
2019-05-23T00:31:58.280Z,99.90
2019-05-23T00:34:29.443Z,99.90
2019-05-23T00:36:59.804Z,99.90
2019-05-23T00:39:29.808Z,99.90
2019-05-23T00:41:59.612Z,99.90
2019-05-23T00:44:30.748Z,99.90
2019-05-23T00:47:00.012Z,99.90
2019-05-23T00:49:29.347Z,99.90
2019-05-23T00:51:58.885Z,99.90
2019-05-23T00:54:28.119Z,99.90
2019-05-23T00:56:59.225Z,99.90
2019-05-23T00:59:28.444Z,99.90
2019-05-23T01:01:57.886Z,99.90
2019-05-23T01:04:28.046Z,99.90
2019-05-23T01:06:57.841Z,99.90
2019-05-23T01:09:27.538Z,99.90
2019-05-23T01:11:57.938Z,99.90
2019-05-23T01:14:28.664Z,99.90
2019-05-23T01:16:59.055Z,99.90
2019-05-23T01:19:29.033Z,99.90
2019-05-23T01:22:02.755Z,99.90
2019-05-23T01:24:35.275Z,99.90
2019-05-23T01:27:06.103Z,99.90
2019-05-23T01:29:49.989Z,99.90
2019-05-23T01:32:29.861Z,99.90
2019-05-23T01:34:59.952Z,99.90
2019-05-23T01:37:30.831Z,99.90
2019-05-23T01:40:00.073Z,99.90
2019-05-23T01:42:29.267Z,99.90
2019-05-23T01:45:00.136Z,99.90
2019-05-23T01:47:29.898Z,99.90
2019-05-23T01:49:59.935Z,99.90
2019-05-23T01:52:30.015Z,99.90
2019-05-23T01:55:00.200Z,99.90
2019-05-23T01:57:30.289Z,99.90
2019-05-23T02:00:10.060Z,99.90
2019-05-23T02:02:30.429Z,99.90
2019-05-23T02:05:00.270Z,99.90
2019-05-23T02:07:30.341Z,99.90
2019-05-23T02:10:00.287Z,99.90
2019-05-23T02:12:30.933Z,99.90
2019-05-23T02:15:00.613Z,99.90
2019-05-23T02:17:31.484Z,99.90
2019-05-23T02:20:01.663Z,99.90
2019-05-23T02:22:31.987Z,99.90
2019-05-23T02:25:02.808Z,99.90
2019-05-23T02:27:33.191Z,99.90
2019-05-23T02:30:02.689Z,99.90
2019-05-23T02:32:34.059Z,99.90
2019-05-23T02:35:04.653Z,99.90
2019-05-23T02:37:57.291Z,99.90
2019-05-23T02:40:44.144Z,99.90
2019-05-23T02:43:15.533Z,99.90
2019-05-23T02:45:48.687Z,99.90
2019-05-23T02:48:22.981Z,99.90
2019-05-23T02:50:59.872Z,99.90
2019-05-23T02:53:35.521Z,99.90
2019-05-23T02:56:09.216Z,99.90
2019-05-23T02:59:13.203Z,99.90
2019-05-23T03:02:24.096Z,99.90
2019-05-23T03:04:53.660Z,99.90
2019-05-23T03:07:27.411Z,99.90
2019-05-23T03:09:56.623Z,99.90
2019-05-23T03:12:28.000Z,99.90
2019-05-23T03:14:58.852Z,99.90
2019-05-23T03:17:29.963Z,99.90
2019-05-23T03:20:03.033Z,99.90
2019-05-23T03:22:50.816Z,99.90
2019-05-23T03:26:03.964Z,99.90
2019-05-23T03:28:39.536Z,99.90
2019-05-23T03:31:28.261Z,99.90
2019-05-23T03:33:45.876Z,99.90
2019-05-23T03:36:16.065Z,99.90
2019-05-23T03:38:45.276Z,99.90
2019-05-23T03:41:14.771Z,99.90
2019-05-23T03:43:45.584Z,99.90
2019-05-23T03:46:19.029Z,99.90
2019-05-23T03:48:48.225Z,99.90
2019-05-23T03:51:17.515Z,99.90
2019-05-23T03:53:47.087Z,99.90
2019-05-23T03:56:16.416Z,99.90
2019-05-23T03:58:47.820Z,99.90
2019-05-23T04:01:19.597Z,99.90
2019-05-23T04:03:50.568Z,99.90
2019-05-23T04:06:21.344Z,99.90
2019-05-23T04:08:50.579Z,99.90
2019-05-23T04:11:20.237Z,99.90
2019-05-23T04:13:49.787Z,99.90
2019-05-23T04:16:18.977Z,99.90
2019-05-23T04:18:48.386Z,99.90
2019-05-23T04:21:22.601Z,99.90
2019-05-23T04:23:51.904Z,99.90
2019-05-23T04:26:22.804Z,99.90
2019-05-23T04:28:53.051Z,99.90
2019-05-23T04:31:22.567Z,99.90
2019-05-23T04:33:52.098Z,99.90
2019-05-23T04:36:21.582Z,99.90
2019-05-23T04:38:50.782Z,99.90
2019-05-23T04:41:20.062Z,99.90
2019-05-23T04:43:49.311Z,99.90
2019-05-23T04:46:18.586Z,99.90
2019-05-23T04:48:47.815Z,99.90
2019-05-23T04:51:17.405Z,99.90
2019-05-23T04:53:46.693Z,99.90
2019-05-23T04:56:17.051Z,99.90
2019-05-23T04:58:47.111Z,99.90
2019-05-23T05:01:18.394Z,99.90
2019-05-23T05:03:48.615Z,99.90
2019-05-23T05:06:18.360Z,99.90
2019-05-23T05:08:48.248Z,99.90
2019-05-23T05:11:17.909Z,99.90
2019-05-23T05:13:47.139Z,99.90
2019-05-23T05:16:16.502Z,99.90
2019-05-23T05:18:46.509Z,99.90
2019-05-23T05:21:16.244Z,99.90
2019-05-23T05:23:45.433Z,99.90
2019-05-23T05:26:21.346Z,99.90
2019-05-23T05:28:51.556Z,99.90
2019-05-23T05:31:21.527Z,99.90
2019-05-23T05:33:50.743Z,99.90
2019-05-23T05:36:19.992Z,99.90
2019-05-23T05:38:49.251Z,99.90
2019-05-23T05:41:18.516Z,99.90
2019-05-23T05:43:47.728Z,99.90
2019-05-23T05:46:16.911Z,99.90
2019-05-23T05:48:46.727Z,99.90
2019-05-23T05:51:16.231Z,99.90
2019-05-23T05:53:45.487Z,99.90
2019-05-23T05:56:14.793Z,99.90
2019-05-23T05:58:44.086Z,99.90
2019-05-23T06:01:24.596Z,99.90
2019-05-23T06:03:46.367Z,99.90
2019-05-23T06:06:26.788Z,99.90
2019-05-23T06:08:58.372Z,99.90
2019-05-23T06:11:27.591Z,99.90
2019-05-23T06:13:56.907Z,99.90
2019-05-23T06:16:26.936Z,99.90
2019-05-23T06:18:57.059Z,99.90
2019-05-23T06:21:28.846Z,99.90
2019-05-23T06:23:58.121Z,99.90
2019-05-23T06:26:27.256Z,99.90
2019-05-23T06:28:56.654Z,99.90
2019-05-23T06:31:26.004Z,99.90
2019-05-23T06:33:55.459Z,99.90
2019-05-23T06:36:25.679Z,99.90
2019-05-23T06:38:56.273Z,99.90
2019-05-23T06:41:26.937Z,99.90
2019-05-23T06:43:56.843Z,99.90
2019-05-23T06:46:26.048Z,99.90
2019-05-23T06:48:55.415Z,99.90
2019-05-23T06:51:25.237Z,99.90
2019-05-23T06:53:54.940Z,99.90
2019-05-23T06:56:24.897Z,99.90
2019-05-23T06:58:54.116Z,99.90
2019-05-23T07:01:23.417Z,99.90
2019-05-23T07:03:52.632Z,99.90
2019-05-23T07:06:24.240Z,99.90
2019-05-23T07:08:53.444Z,99.90
2019-05-23T07:11:23.847Z,99.90
2019-05-23T07:13:53.150Z,99.90
2019-05-23T07:16:22.515Z,99.90
2019-05-23T07:18:51.780Z,99.90
2019-05-23T07:21:22.124Z,99.90
2019-05-23T07:23:51.556Z,99.90
2019-05-23T07:26:20.711Z,99.90
2019-05-23T07:28:50.488Z,99.90
2019-05-23T07:31:20.204Z,99.90
2019-05-23T07:34:00.910Z,99.90
2019-05-23T07:36:20.465Z,99.90
2019-05-23T07:38:49.731Z,99.90
2019-05-23T07:41:19.025Z,99.90
2019-05-23T07:43:48.231Z,99.90
2019-05-23T07:46:17.793Z,99.90
2019-05-23T07:48:46.920Z,99.90
2019-05-23T07:51:16.445Z,99.90
2019-05-23T07:53:59.273Z,99.90
2019-05-23T07:56:30.302Z,99.90
2019-05-23T07:58:59.503Z,99.90
2019-05-23T08:01:30.432Z,99.90
2019-05-23T08:03:59.911Z,99.90
2019-05-23T08:06:29.195Z,99.90
2019-05-23T08:08:59.588Z,99.90
2019-05-23T08:11:28.787Z,99.90
2019-05-23T08:13:59.078Z,99.10
2019-05-23T08:16:28.557Z,95.50
2019-05-23T08:18:57.785Z,86.80
2019-05-23T08:21:27.074Z,79.50
2019-05-23T08:23:56.257Z,77.80
2019-05-23T08:26:26.075Z,79.80
2019-05-23T08:29:22.230Z,80.30
2019-05-23T08:31:27.160Z,80.40
2019-05-23T08:33:56.399Z,78.10
2019-05-23T08:36:25.603Z,79.60
2019-05-23T08:38:56.250Z,80.00
2019-05-23T08:41:25.939Z,79.00
2019-05-23T08:43:55.234Z,76.90
2019-05-23T08:46:24.462Z,72.90
2019-05-23T08:48:54.643Z,74.80
2019-05-23T08:51:24.015Z,75.20
2019-05-23T08:53:53.736Z,70.70
2019-05-23T08:56:22.968Z,70.10
2019-05-23T08:58:52.131Z,70.60
2019-05-23T09:01:21.908Z,73.30
2019-05-23T09:03:51.102Z,71.80
2019-05-23T09:06:20.315Z,71.90
2019-05-23T09:08:51.854Z,71.90
2019-05-23T09:11:21.159Z,68.10
2019-05-23T09:13:50.370Z,68.10
2019-05-23T09:16:19.943Z,72.10
2019-05-23T09:18:49.146Z,70.00
2019-05-23T09:21:18.512Z,70.90
2019-05-23T09:23:47.778Z,70.00
2019-05-23T09:26:17.821Z,65.00
2019-05-23T09:28:47.235Z,65.20
2019-05-23T09:31:16.685Z,66.20
2019-05-23T09:33:45.906Z,67.10
2019-05-23T09:36:15.934Z,65.70
2019-05-23T09:38:45.576Z,65.80
2019-05-23T09:41:14.708Z,62.30
2019-05-23T09:43:44.023Z,61.70
2019-05-23T09:46:13.221Z,60.70
2019-05-23T09:48:42.625Z,60.70
2019-05-23T09:51:11.989Z,59.90
2019-05-23T09:53:46.903Z,60.00
2019-05-23T09:56:12.296Z,59.20
2019-05-23T09:58:41.782Z,59.20
2019-05-23T10:01:11.538Z,58.90
2019-05-23T10:03:40.709Z,57.80
2019-05-23T10:06:09.930Z,58.50
2019-05-23T10:08:39.139Z,58.60
2019-05-23T10:11:08.351Z,58.50
2019-05-23T10:13:39.407Z,57.70
2019-05-23T10:16:09.967Z,56.30
2019-05-23T10:18:40.552Z,56.40
2019-05-23T10:21:10.286Z,57.90
2019-05-23T10:23:39.464Z,57.70
2019-05-23T10:26:08.773Z,56.30
2019-05-23T10:28:37.941Z,54.50
2019-05-23T10:31:08.896Z,55.10
2019-05-23T10:33:38.008Z,54.40
2019-05-23T10:36:07.335Z,55.40
2019-05-23T10:38:36.527Z,56.10
2019-05-23T10:41:06.248Z,56.10
2019-05-23T10:43:35.569Z,54.50
2019-05-23T10:46:04.773Z,54.60
2019-05-23T10:48:34.650Z,54.80
2019-05-23T10:51:05.507Z,53.10
2019-05-23T10:53:34.832Z,54.00
2019-05-23T10:56:04.215Z,54.40
2019-05-23T10:58:33.436Z,54.30
2019-05-23T11:01:03.036Z,54.80
2019-05-23T11:03:32.509Z,54.90
2019-05-23T11:06:14.778Z,54.90
2019-05-23T11:08:34.036Z,54.20
2019-05-23T11:11:03.425Z,51.50
2019-05-23T11:13:33.143Z,53.10
2019-05-23T11:16:03.415Z,52.40
2019-05-23T11:18:32.652Z,51.80
2019-05-23T11:21:01.945Z,51.20
2019-05-23T11:23:35.956Z,52.80
2019-05-23T11:26:06.161Z,52.10
2019-05-23T11:28:36.246Z,53.10
2019-05-23T11:31:07.831Z,54.80
2019-05-23T11:33:37.532Z,54.50
2019-05-23T11:36:06.780Z,51.80
2019-05-23T11:38:35.987Z,51.20
2019-05-23T11:41:05.320Z,52.30
2019-05-23T11:43:34.696Z,52.50
2019-05-23T11:46:21.637Z,53.00
2019-05-23T11:48:51.313Z,52.40
2019-05-23T11:51:25.197Z,52.10
2019-05-23T11:54:06.894Z,52.80
2019-05-23T11:56:23.485Z,54.70
2019-05-23T11:58:52.843Z,54.20
2019-05-23T12:01:53.304Z,54.20
2019-05-23T12:04:41.714Z,54.70
2019-05-23T12:07:17.879Z,55.10
2019-05-23T12:09:47.180Z,55.90
2019-05-23T12:12:16.491Z,54.70
2019-05-23T12:14:46.028Z,53.60
2019-05-23T12:17:17.591Z,54.00
2019-05-23T12:19:46.801Z,54.30
2019-05-23T12:22:16.563Z,53.50
2019-05-23T12:24:45.736Z,52.90
2019-05-23T12:27:15.027Z,52.40
2019-05-23T12:29:45.088Z,51.80
2019-05-23T12:32:14.690Z,51.40
2019-05-23T12:34:43.890Z,51.00
2019-05-23T12:37:19.023Z,50.60
2019-05-23T12:39:44.052Z,51.50
2019-05-23T12:42:13.394Z,50.60
2019-05-23T12:44:42.573Z,50.90
2019-05-23T12:47:21.156Z,51.50
2019-05-23T12:49:53.925Z,50.80
2019-05-23T12:52:23.446Z,49.80
2019-05-23T12:54:53.029Z,49.20
2019-05-23T12:57:22.481Z,49.10
2019-05-23T12:59:52.067Z,48.30
2019-05-23T13:02:25.357Z,49.10
2019-05-23T13:04:54.676Z,49.20
2019-05-23T13:07:35.659Z,50.60
2019-05-23T13:09:54.898Z,51.50
2019-05-23T13:12:24.702Z,50.10
2019-05-23T13:14:58.436Z,48.80
2019-05-23T13:17:24.939Z,48.90
2019-05-23T13:19:54.156Z,50.10
2019-05-23T13:22:23.650Z,49.80
2019-05-23T13:24:53.537Z,50.40
2019-05-23T13:27:23.448Z,49.00
2019-05-23T13:29:52.629Z,48.50
2019-05-23T13:32:22.284Z,49.10
2019-05-23T13:34:51.487Z,49.60
2019-05-23T13:37:21.871Z,48.60
2019-05-23T13:39:51.167Z,48.50
2019-05-23T13:42:20.434Z,49.30
2019-05-23T13:44:50.026Z,50.00
2019-05-23T13:47:19.519Z,50.70
2019-05-23T13:49:48.704Z,49.50
2019-05-23T13:52:17.943Z,49.40
2019-05-23T13:54:47.127Z,50.20
2019-05-23T13:57:16.682Z,50.30
2019-05-23T13:59:45.913Z,50.50
2019-05-23T14:02:15.179Z,50.10
2019-05-23T14:04:44.739Z,49.70
2019-05-23T14:07:14.947Z,49.70
2019-05-23T14:09:44.313Z,50.70
2019-05-23T14:12:21.785Z,51.20
2019-05-23T14:14:44.405Z,51.50
2019-05-23T14:17:20.248Z,51.80
2019-05-23T14:19:49.392Z,52.10
2019-05-23T14:22:18.761Z,51.70
2019-05-23T14:24:48.164Z,51.50
2019-05-23T14:27:27.417Z,51.90
2019-05-23T14:29:56.651Z,52.90
2019-05-23T14:32:51.009Z,53.00
2019-05-23T14:35:24.963Z,53.60
2019-05-23T14:37:56.140Z,52.50
2019-05-23T14:40:25.436Z,52.00
2019-05-23T14:43:03.544Z,49.80
2019-05-23T14:45:58.145Z,50.20
2019-05-23T14:48:49.736Z,51.40
2019-05-23T14:51:41.005Z,50.60
2019-05-23T14:54:25.303Z,49.30
2019-05-23T14:56:54.972Z,50.50
2019-05-23T14:59:24.796Z,50.80
2019-05-23T15:01:54.374Z,50.30
2019-05-23T15:04:24.129Z,51.00
2019-05-23T15:06:53.575Z,51.00
2019-05-23T15:09:23.579Z,51.10
2019-05-23T15:11:52.832Z,51.30
2019-05-23T15:14:22.229Z,52.10
2019-05-23T15:16:51.459Z,50.70
2019-05-23T15:19:39.147Z,50.30
2019-05-23T15:21:51.683Z,49.70
2019-05-23T15:24:21.757Z,49.30
2019-05-23T15:26:50.965Z,49.40
2019-05-23T15:29:20.464Z,50.20
2019-05-23T15:32:01.856Z,49.10
2019-05-23T15:34:21.660Z,49.10
2019-05-23T15:36:51.126Z,48.60
2019-05-23T15:39:22.019Z,48.40
2019-05-23T15:41:51.440Z,47.70
2019-05-23T15:44:27.201Z,48.30
2019-05-23T15:46:52.765Z,48.80
2019-05-23T15:49:23.127Z,48.20
2019-05-23T15:51:59.623Z,47.70
2019-05-23T15:54:42.204Z,48.40
2019-05-23T15:57:32.179Z,49.30
2019-05-23T16:00:24.043Z,49.40
2019-05-23T16:03:07.418Z,49.80
2019-05-23T16:05:56.592Z,49.90
2019-05-23T16:08:26.755Z,50.90
2019-05-23T16:10:56.921Z,50.90
2019-05-23T16:13:26.892Z,50.80
2019-05-23T16:15:56.579Z,51.30
2019-05-23T16:18:26.394Z,51.40
2019-05-23T16:20:55.588Z,51.10
2019-05-23T16:23:24.855Z,51.50
2019-05-23T16:25:54.065Z,51.50
2019-05-23T16:28:23.261Z,52.00
2019-05-23T16:30:53.249Z,51.20
2019-05-23T16:33:22.434Z,52.20
2019-05-23T16:35:51.652Z,52.70
2019-05-23T16:38:20.858Z,53.40
2019-05-23T16:40:50.195Z,53.20
2019-05-23T16:43:19.379Z,53.30
2019-05-23T16:45:48.580Z,53.50
2019-05-23T16:48:17.892Z,53.60
2019-05-23T16:50:47.054Z,54.10
2019-05-23T16:53:16.388Z,54.40
2019-05-23T16:55:58.329Z,54.30
2019-05-23T16:58:42.840Z,55.00
2019-05-23T17:01:24.697Z,55.20
2019-05-23T17:03:59.419Z,55.60
2019-05-23T17:06:37.716Z,55.90
2019-05-23T17:09:31.319Z,56.30
2019-05-23T17:12:05.028Z,56.30
2019-05-23T17:15:05.382Z,56.50
2019-05-23T17:18:03.435Z,56.50
2019-05-23T17:20:51.951Z,56.30
2019-05-23T17:23:31.381Z,55.90
2019-05-23T17:26:07.269Z,55.90
2019-05-23T17:28:42.127Z,56.60
2019-05-23T17:31:13.959Z,56.40
2019-05-23T17:33:43.716Z,56.70
2019-05-23T17:36:13.037Z,57.20
2019-05-23T17:38:42.274Z,57.20
2019-05-23T17:41:11.880Z,57.60
2019-05-23T17:43:41.439Z,57.40
2019-05-23T17:46:10.653Z,57.80
2019-05-23T17:48:39.856Z,58.50
2019-05-23T17:51:09.040Z,58.70
2019-05-23T17:53:38.321Z,58.90
2019-05-23T17:56:08.619Z,59.10
2019-05-23T17:58:37.844Z,59.50
2019-05-23T18:01:08.169Z,59.70
2019-05-23T18:03:37.319Z,60.20
2019-05-23T18:06:07.665Z,60.20
2019-05-23T18:08:37.612Z,60.80
2019-05-23T18:11:06.963Z,61.20
2019-05-23T18:13:37.148Z,61.80
2019-05-23T18:16:06.616Z,62.10
2019-05-23T18:18:35.983Z,62.60
2019-05-23T18:21:05.381Z,62.80
2019-05-23T18:23:35.299Z,63.40
2019-05-23T18:26:05.739Z,64.00
2019-05-23T18:28:35.566Z,64.60
2019-05-23T18:31:11.232Z,65.30
2019-05-23T18:33:41.615Z,65.70
2019-05-23T18:36:11.421Z,66.30
2019-05-23T18:38:40.682Z,67.20
2019-05-23T18:41:10.156Z,67.70
2019-05-23T18:43:40.143Z,68.30
2019-05-23T18:46:15.286Z,68.80
2019-05-23T18:48:44.659Z,69.30
2019-05-23T18:51:14.517Z,70.00
2019-05-23T18:53:43.999Z,70.60
2019-05-23T18:56:13.162Z,71.50
2019-05-23T18:58:42.852Z,72.20
2019-05-23T19:01:19.148Z,72.70
2019-05-23T19:03:48.600Z,73.10
2019-05-23T19:06:18.003Z,73.80
2019-05-23T19:08:47.849Z,74.40
2019-05-23T19:11:21.251Z,75.10
2019-05-23T19:13:48.211Z,75.70
2019-05-23T19:16:17.659Z,76.40
2019-05-23T19:18:47.200Z,77.20
2019-05-23T19:21:18.185Z,78.20
2019-05-23T19:23:47.574Z,78.90
2019-05-23T19:26:17.616Z,79.30
2019-05-23T19:28:46.872Z,79.90
2019-05-23T19:31:16.960Z,80.30
2019-05-23T19:33:47.915Z,81.00
2019-05-23T19:36:17.067Z,81.50
2019-05-23T19:38:46.327Z,81.70
2019-05-23T19:41:15.640Z,81.90
2019-05-23T19:43:48.078Z,82.20
2019-05-23T19:46:16.153Z,82.50
2019-05-23T19:48:45.491Z,83.00
2019-05-23T19:51:15.984Z,83.70
2019-05-23T19:53:45.165Z,84.50
2019-05-23T19:56:14.680Z,84.90
2019-05-23T19:58:43.854Z,85.30
2019-05-23T20:01:13.332Z,85.50
2019-05-23T20:03:42.766Z,85.60
2019-05-23T20:06:13.962Z,86.10
2019-05-23T20:08:45.435Z,86.60
2019-05-23T20:11:14.632Z,87.50
2019-05-23T20:13:43.822Z,88.50
2019-05-23T20:16:13.153Z,89.50
2019-05-23T20:18:43.266Z,90.10
2019-05-23T20:21:12.538Z,90.40
2019-05-23T20:23:42.084Z,90.70
2019-05-23T20:26:11.487Z,91.10
2019-05-23T20:28:40.670Z,91.40
2019-05-23T20:31:09.966Z,91.70
2019-05-23T20:33:39.754Z,92.40
2019-05-23T20:36:13.138Z,92.50
2019-05-23T20:38:43.163Z,92.80
2019-05-23T20:41:12.566Z,93.30
2019-05-23T20:43:41.794Z,93.60
2019-05-23T20:46:10.976Z,93.90
2019-05-23T20:48:40.783Z,94.10
2019-05-23T20:51:10.143Z,94.30
2019-05-23T20:53:39.454Z,94.70
2019-05-23T20:56:08.654Z,95.20
2019-05-23T20:58:37.960Z,95.40
2019-05-23T21:01:17.979Z,96.00
2019-05-23T21:03:47.896Z,96.00
2019-05-23T21:06:17.081Z,96.40
2019-05-23T21:08:46.291Z,96.70
2019-05-23T21:11:15.572Z,97.00
2019-05-23T21:13:44.836Z,97.20
2019-05-23T21:16:13.992Z,97.40
2019-05-23T21:18:43.216Z,97.70
2019-05-23T21:21:12.429Z,97.90
2019-05-23T21:23:41.627Z,98.10
2019-05-23T21:26:10.893Z,98.30
2019-05-23T21:28:40.067Z,98.50
2019-05-23T21:31:17.871Z,98.70
2019-05-23T21:33:47.066Z,99.00
2019-05-23T21:36:16.253Z,99.90
2019-05-23T21:38:45.565Z,99.90
2019-05-23T21:41:14.772Z,99.90
2019-05-23T21:43:44.975Z,99.90
2019-05-23T21:46:14.273Z,99.90
2019-05-23T21:48:43.476Z,99.90
2019-05-23T21:51:12.685Z,99.90
2019-05-23T21:53:41.884Z,99.90
2019-05-23T21:56:11.121Z,99.90
2019-05-23T21:58:40.352Z,99.90
2019-05-23T22:01:33.519Z,99.90
2019-05-23T22:04:27.594Z,99.90
2019-05-23T22:07:04.195Z,99.90
2019-05-23T22:09:33.913Z,99.90
2019-05-23T22:12:03.747Z,99.90
2019-05-23T22:14:33.018Z,99.90
2019-05-23T22:17:02.238Z,99.90
2019-05-23T22:19:31.980Z,99.90
2019-05-23T22:22:01.176Z,99.90
2019-05-23T22:24:30.464Z,99.90
2019-05-23T22:26:59.636Z,99.90
2019-05-23T22:29:28.836Z,99.90
2019-05-23T22:31:58.011Z,99.90
2019-05-23T22:34:44.927Z,99.90
2019-05-23T22:37:17.175Z,99.90
2019-05-23T22:39:46.381Z,99.90
2019-05-23T22:42:15.790Z,99.90
2019-05-23T22:44:45.243Z,99.90
2019-05-23T22:47:14.497Z,99.90
2019-05-23T22:49:43.703Z,99.90
2019-05-23T22:52:12.923Z,99.90
2019-05-23T22:54:42.127Z,99.90
2019-05-23T22:57:11.554Z,99.90
2019-05-23T22:59:40.709Z,99.90
2019-05-23T23:02:13.955Z,99.90
2019-05-23T23:04:43.337Z,99.90
2019-05-23T23:07:12.594Z,99.90
2019-05-23T23:09:41.839Z,99.90
2019-05-23T23:12:11.420Z,99.90
2019-05-23T23:14:40.711Z,99.90
2019-05-23T23:17:09.995Z,99.90
2019-05-23T23:19:39.243Z,99.90
2019-05-23T23:22:10.811Z,99.90
2019-05-23T23:24:40.044Z,99.90
2019-05-23T23:27:09.235Z,99.90
2019-05-23T23:29:38.447Z,99.90
2019-05-23T23:32:08.215Z,99.90
2019-05-23T23:34:37.435Z,99.90
2019-05-23T23:37:06.690Z,99.90
2019-05-23T23:39:35.912Z,99.90
2019-05-23T23:42:06.329Z,99.90
2019-05-23T23:44:34.708Z,99.90
2019-05-23T23:47:24.857Z,99.90
2019-05-23T23:50:11.913Z,99.90
2019-05-23T23:52:59.179Z,99.90
2019-05-23T23:55:46.376Z,99.90
2019-05-23T23:58:15.087Z,99.90
